sensor_id;sensor_type;location;lat;lon;timestamp;temperature;humidity
22771;DHT22;11552;50.786;4.332;2022-08-19T00:01:39;20.60;99.90
22771;DHT22;11552;50.786;4.332;2022-08-19T00:04:09;20.80;99.90
22771;DHT22;11552;50.786;4.332;2022-08-19T00:06:35;21.10;99.90
22771;DHT22;11552;50.786;4.332;2022-08-19T00:09:01;21.30;99.90
22771;DHT22;11552;50.786;4.332;2022-08-19T00:11:27;21.10;99.90
22771;DHT22;11552;50.786;4.332;2022-08-19T00:13:53;20.90;99.90
22771;DHT22;11552;50.786;4.332;2022-08-19T00:16:19;20.90;99.90
22771;DHT22;11552;50.786;4.332;2022-08-19T00:18:46;20.90;99.90
22771;DHT22;11552;50.786;4.332;2022-08-19T00:21:11;21.00;99.90
22771;DHT22;11552;50.786;4.332;2022-08-19T00:23:37;21.10;99.90
22771;DHT22;11552;50.786;4.332;2022-08-19T00:26:03;21.20;99.90
22771;DHT22;11552;50.786;4.332;2022-08-19T00:28:29;21.20;99.90
22771;DHT22;11552;50.786;4.332;2022-08-19T00:30:55;21.00;99.90
22771;DHT22;11552;50.786;4.332;2022-08-19T00:33:21;21.10;99.90
22771;DHT22;11552;50.786;4.332;2022-08-19T00:35:46;21.20;99.90
22771;DHT22;11552;50.786;4.332;2022-08-19T00:38:12;21.30;99.90
22771;DHT22;11552;50.786;4.332;2022-08-19T00:40:37;21.10;99.90
22771;DHT22;11552;50.786;4.332;2022-08-19T00:43:07;21.30;99.90
22771;DHT22;11552;50.786;4.332;2022-08-19T00:45:33;21.40;99.90
22771;DHT22;11552;50.786;4.332;2022-08-19T00:47:59;21.50;99.90
22771;DHT22;11552;50.786;4.332;2022-08-19T00:50:28;21.60;99.90
22771;DHT22;11552;50.786;4.332;2022-08-19T00:52:55;21.60;99.90
22771;DHT22;11552;50.786;4.332;2022-08-19T00:55:22;21.60;99.90
22771;DHT22;11552;50.786;4.332;2022-08-19T00:57:48;21.60;99.90
22771;DHT22;11552;50.786;4.332;2022-08-19T01:00:16;21.70;99.90
22771;DHT22;11552;50.786;4.332;2022-08-19T01:02:42;21.50;99.90
22771;DHT22;11552;50.786;4.332;2022-08-19T01:05:10;21.50;99.90
22771;DHT22;11552;50.786;4.332;2022-08-19T01:07:37;21.50;99.90
22771;DHT22;11552;50.786;4.332;2022-08-19T01:10:05;21.40;99.90
22771;DHT22;11552;50.786;4.332;2022-08-19T01:12:31;21.40;99.90
22771;DHT22;11552;50.786;4.332;2022-08-19T01:14:56;21.30;99.90
22771;DHT22;11552;50.786;4.332;2022-08-19T01:17:22;21.20;99.90
22771;DHT22;11552;50.786;4.332;2022-08-19T01:19:48;21.10;99.90
22771;DHT22;11552;50.786;4.332;2022-08-19T01:24:49;21.10;99.90
22771;DHT22;11552;50.786;4.332;2022-08-19T01:27:14;21.00;99.90
22771;DHT22;11552;50.786;4.332;2022-08-19T01:29:41;20.70;99.90
22771;DHT22;11552;50.786;4.332;2022-08-19T01:32:07;20.70;99.90
22771;DHT22;11552;50.786;4.332;2022-08-19T01:34:33;20.70;99.90
22771;DHT22;11552;50.786;4.332;2022-08-19T01:36:59;20.70;99.90
22771;DHT22;11552;50.786;4.332;2022-08-19T01:39:26;20.60;99.90
22771;DHT22;11552;50.786;4.332;2022-08-19T01:41:53;20.40;99.90
22771;DHT22;11552;50.786;4.332;2022-08-19T01:44:20;20.40;99.90
22771;DHT22;11552;50.786;4.332;2022-08-19T01:46:49;20.40;99.90
22771;DHT22;11552;50.786;4.332;2022-08-19T01:49:15;20.40;99.90
22771;DHT22;11552;50.786;4.332;2022-08-19T01:51:41;20.30;99.90
22771;DHT22;11552;50.786;4.332;2022-08-19T01:54:07;20.20;99.90
22771;DHT22;11552;50.786;4.332;2022-08-19T01:56:33;20.10;99.90
22771;DHT22;11552;50.786;4.332;2022-08-19T01:59:00;20.10;99.90
22771;DHT22;11552;50.786;4.332;2022-08-19T02:01:26;20.10;99.90
22771;DHT22;11552;50.786;4.332;2022-08-19T02:03:52;20.10;99.90
22771;DHT22;11552;50.786;4.332;2022-08-19T02:06:19;20.10;99.90
22771;DHT22;11552;50.786;4.332;2022-08-19T02:08:44;20.20;99.90
22771;DHT22;11552;50.786;4.332;2022-08-19T02:11:18;20.10;99.90
22771;DHT22;11552;50.786;4.332;2022-08-19T02:13:44;20.00;99.90
22771;DHT22;11552;50.786;4.332;2022-08-19T02:16:10;19.90;99.90
22771;DHT22;11552;50.786;4.332;2022-08-19T02:18:35;20.00;99.90
22771;DHT22;11552;50.786;4.332;2022-08-19T02:21:01;20.00;99.90
22771;DHT22;11552;50.786;4.332;2022-08-19T02:23:26;20.00;99.90
22771;DHT22;11552;50.786;4.332;2022-08-19T02:25:52;19.90;99.90
22771;DHT22;11552;50.786;4.332;2022-08-19T02:28:17;19.80;99.90
22771;DHT22;11552;50.786;4.332;2022-08-19T02:30:43;19.80;99.90
22771;DHT22;11552;50.786;4.332;2022-08-19T02:33:09;19.80;99.90
22771;DHT22;11552;50.786;4.332;2022-08-19T02:35:34;19.60;99.90
22771;DHT22;11552;50.786;4.332;2022-08-19T02:38:00;19.50;99.90
22771;DHT22;11552;50.786;4.332;2022-08-19T02:40:48;19.40;99.90
22771;DHT22;11552;50.786;4.332;2022-08-19T02:43:14;19.30;99.90
22771;DHT22;11552;50.786;4.332;2022-08-19T02:45:40;19.40;99.90
22771;DHT22;11552;50.786;4.332;2022-08-19T02:48:06;19.50;99.90
22771;DHT22;11552;50.786;4.332;2022-08-19T02:50:32;19.50;99.90
22771;DHT22;11552;50.786;4.332;2022-08-19T02:52:58;19.50;99.90
22771;DHT22;11552;50.786;4.332;2022-08-19T02:55:23;19.50;99.90
22771;DHT22;11552;50.786;4.332;2022-08-19T02:57:49;19.50;99.90
22771;DHT22;11552;50.786;4.332;2022-08-19T03:00:15;19.30;99.90
22771;DHT22;11552;50.786;4.332;2022-08-19T03:02:41;19.20;99.90
22771;DHT22;11552;50.786;4.332;2022-08-19T03:05:07;19.40;99.90
22771;DHT22;11552;50.786;4.332;2022-08-19T03:07:35;19.60;99.90
22771;DHT22;11552;50.786;4.332;2022-08-19T03:10:00;19.60;99.90
22771;DHT22;11552;50.786;4.332;2022-08-19T03:12:26;19.60;99.90
22771;DHT22;11552;50.786;4.332;2022-08-19T03:14:52;19.60;99.90
22771;DHT22;11552;50.786;4.332;2022-08-19T03:17:18;19.60;99.90
22771;DHT22;11552;50.786;4.332;2022-08-19T03:19:43;19.40;99.90
22771;DHT22;11552;50.786;4.332;2022-08-19T03:22:09;19.40;99.90
22771;DHT22;11552;50.786;4.332;2022-08-19T03:24:34;19.60;99.90
22771;DHT22;11552;50.786;4.332;2022-08-19T03:27:01;19.50;99.90
22771;DHT22;11552;50.786;4.332;2022-08-19T03:29:27;19.50;99.90
22771;DHT22;11552;50.786;4.332;2022-08-19T03:31:53;19.50;99.90
22771;DHT22;11552;50.786;4.332;2022-08-19T03:34:24;19.60;99.90
22771;DHT22;11552;50.786;4.332;2022-08-19T03:36:53;19.40;99.90
22771;DHT22;11552;50.786;4.332;2022-08-19T03:39:19;19.50;99.90
22771;DHT22;11552;50.786;4.332;2022-08-19T03:41:46;19.40;99.90
22771;DHT22;11552;50.786;4.332;2022-08-19T03:44:16;19.30;99.90
22771;DHT22;11552;50.786;4.332;2022-08-19T03:46:43;19.30;99.90
22771;DHT22;11552;50.786;4.332;2022-08-19T03:49:08;19.20;99.90
22771;DHT22;11552;50.786;4.332;2022-08-19T03:51:35;19.20;99.90
22771;DHT22;11552;50.786;4.332;2022-08-19T03:54:02;19.10;99.90
22771;DHT22;11552;50.786;4.332;2022-08-19T03:56:28;19.10;99.90
22771;DHT22;11552;50.786;4.332;2022-08-19T03:58:55;19.10;99.90
22771;DHT22;11552;50.786;4.332;2022-08-19T04:01:22;19.10;99.90
22771;DHT22;11552;50.786;4.332;2022-08-19T04:03:48;19.10;99.90
22771;DHT22;11552;50.786;4.332;2022-08-19T04:06:15;19.10;99.90
22771;DHT22;11552;50.786;4.332;2022-08-19T04:08:42;19.10;99.90
22771;DHT22;11552;50.786;4.332;2022-08-19T04:11:12;19.10;99.90
22771;DHT22;11552;50.786;4.332;2022-08-19T04:13:37;18.90;99.90
22771;DHT22;11552;50.786;4.332;2022-08-19T04:16:03;18.80;99.90
22771;DHT22;11552;50.786;4.332;2022-08-19T04:18:30;18.80;99.90
22771;DHT22;11552;50.786;4.332;2022-08-19T04:20:56;18.70;99.90
22771;DHT22;11552;50.786;4.332;2022-08-19T04:23:22;18.60;99.90
22771;DHT22;11552;50.786;4.332;2022-08-19T04:25:48;18.50;99.90
22771;DHT22;11552;50.786;4.332;2022-08-19T04:28:14;18.50;99.90
22771;DHT22;11552;50.786;4.332;2022-08-19T04:30:41;18.50;99.90
22771;DHT22;11552;50.786;4.332;2022-08-19T04:33:09;18.40;99.90
22771;DHT22;11552;50.786;4.332;2022-08-19T04:35:36;18.40;99.90
22771;DHT22;11552;50.786;4.332;2022-08-19T04:38:02;18.40;99.90
22771;DHT22;11552;50.786;4.332;2022-08-19T04:40:27;18.30;99.90
22771;DHT22;11552;50.786;4.332;2022-08-19T04:43:12;18.30;99.90
22771;DHT22;11552;50.786;4.332;2022-08-19T04:45:42;18.20;99.90
22771;DHT22;11552;50.786;4.332;2022-08-19T04:48:08;18.10;99.90
22771;DHT22;11552;50.786;4.332;2022-08-19T04:50:33;18.10;99.90
22771;DHT22;11552;50.786;4.332;2022-08-19T04:52:59;18.10;99.90
22771;DHT22;11552;50.786;4.332;2022-08-19T04:55:24;18.20;99.90
22771;DHT22;11552;50.786;4.332;2022-08-19T04:57:53;18.20;99.90
22771;DHT22;11552;50.786;4.332;2022-08-19T05:00:19;18.30;99.90
22771;DHT22;11552;50.786;4.332;2022-08-19T05:02:45;18.30;99.90
22771;DHT22;11552;50.786;4.332;2022-08-19T05:05:10;18.30;99.90
22771;DHT22;11552;50.786;4.332;2022-08-19T05:07:36;18.30;99.90
22771;DHT22;11552;50.786;4.332;2022-08-19T05:10:02;18.20;99.90
22771;DHT22;11552;50.786;4.332;2022-08-19T05:12:28;18.40;99.90
22771;DHT22;11552;50.786;4.332;2022-08-19T05:14:54;18.30;99.90
22771;DHT22;11552;50.786;4.332;2022-08-19T05:17:19;18.40;99.90
22771;DHT22;11552;50.786;4.332;2022-08-19T05:19:45;18.40;99.90
22771;DHT22;11552;50.786;4.332;2022-08-19T05:22:29;18.40;99.90
22771;DHT22;11552;50.786;4.332;2022-08-19T05:25:07;18.50;99.90
22771;DHT22;11552;50.786;4.332;2022-08-19T05:27:33;18.50;99.90
22771;DHT22;11552;50.786;4.332;2022-08-19T05:29:58;18.60;99.90
22771;DHT22;11552;50.786;4.332;2022-08-19T05:32:24;18.60;99.90
22771;DHT22;11552;50.786;4.332;2022-08-19T05:34:49;18.70;99.90
22771;DHT22;11552;50.786;4.332;2022-08-19T05:37:15;18.70;99.90
22771;DHT22;11552;50.786;4.332;2022-08-19T05:39:42;18.70;99.90
22771;DHT22;11552;50.786;4.332;2022-08-19T05:42:08;18.70;99.90
22771;DHT22;11552;50.786;4.332;2022-08-19T05:44:36;18.80;99.90
22771;DHT22;11552;50.786;4.332;2022-08-19T05:47:02;18.80;99.90
22771;DHT22;11552;50.786;4.332;2022-08-19T05:49:30;18.80;99.90
22771;DHT22;11552;50.786;4.332;2022-08-19T05:51:56;18.80;99.90
22771;DHT22;11552;50.786;4.332;2022-08-19T05:54:22;19.00;99.90
22771;DHT22;11552;50.786;4.332;2022-08-19T05:56:49;19.20;99.90
22771;DHT22;11552;50.786;4.332;2022-08-19T05:59:15;19.30;99.90
22771;DHT22;11552;50.786;4.332;2022-08-19T06:01:43;19.40;99.90
22771;DHT22;11552;50.786;4.332;2022-08-19T06:04:09;19.50;99.90
22771;DHT22;11552;50.786;4.332;2022-08-19T06:06:35;19.70;99.90
22771;DHT22;11552;50.786;4.332;2022-08-19T06:09:04;19.70;99.90
22771;DHT22;11552;50.786;4.332;2022-08-19T06:14:07;19.80;99.90
22771;DHT22;11552;50.786;4.332;2022-08-19T06:16:37;19.70;99.90
22771;DHT22;11552;50.786;4.332;2022-08-19T06:19:04;19.70;99.90
22771;DHT22;11552;50.786;4.332;2022-08-19T06:21:31;19.80;99.90
22771;DHT22;11552;50.786;4.332;2022-08-19T06:23:57;19.80;99.90
22771;DHT22;11552;50.786;4.332;2022-08-19T06:26:23;20.00;99.90
22771;DHT22;11552;50.786;4.332;2022-08-19T06:28:49;20.10;99.90
22771;DHT22;11552;50.786;4.332;2022-08-19T06:31:17;20.30;99.90
22771;DHT22;11552;50.786;4.332;2022-08-19T06:33:43;20.50;99.90
22771;DHT22;11552;50.786;4.332;2022-08-19T06:36:16;20.50;99.90
22771;DHT22;11552;50.786;4.332;2022-08-19T06:38:42;20.60;99.90
22771;DHT22;11552;50.786;4.332;2022-08-19T06:41:07;20.70;99.90
22771;DHT22;11552;50.786;4.332;2022-08-19T06:43:33;20.90;99.90
22771;DHT22;11552;50.786;4.332;2022-08-19T06:45:59;21.00;99.90
22771;DHT22;11552;50.786;4.332;2022-08-19T06:48:24;21.10;99.90
22771;DHT22;11552;50.786;4.332;2022-08-19T06:50:50;21.20;99.90
22771;DHT22;11552;50.786;4.332;2022-08-19T06:53:16;20.90;99.90
22771;DHT22;11552;50.786;4.332;2022-08-19T06:55:44;21.00;99.90
22771;DHT22;11552;50.786;4.332;2022-08-19T06:58:10;21.30;99.90
22771;DHT22;11552;50.786;4.332;2022-08-19T07:00:36;21.60;99.90
22771;DHT22;11552;50.786;4.332;2022-08-19T07:03:01;21.70;99.90
22771;DHT22;11552;50.786;4.332;2022-08-19T07:05:27;21.40;99.90
22771;DHT22;11552;50.786;4.332;2022-08-19T07:07:53;21.50;99.90
22771;DHT22;11552;50.786;4.332;2022-08-19T07:10:18;21.30;99.90
22771;DHT22;11552;50.786;4.332;2022-08-19T07:12:44;21.20;99.90
22771;DHT22;11552;50.786;4.332;2022-08-19T07:15:10;21.00;99.90
22771;DHT22;11552;50.786;4.332;2022-08-19T07:17:36;21.00;99.90
22771;DHT22;11552;50.786;4.332;2022-08-19T07:20:05;21.00;99.90
22771;DHT22;11552;50.786;4.332;2022-08-19T07:22:32;21.00;99.90
22771;DHT22;11552;50.786;4.332;2022-08-19T07:24:58;21.30;99.90
22771;DHT22;11552;50.786;4.332;2022-08-19T07:27:24;21.60;99.90
22771;DHT22;11552;50.786;4.332;2022-08-19T07:29:49;21.90;99.90
22771;DHT22;11552;50.786;4.332;2022-08-19T07:32:15;22.10;99.90
22771;DHT22;11552;50.786;4.332;2022-08-19T07:34:40;22.30;99.90
22771;DHT22;11552;50.786;4.332;2022-08-19T07:37:06;22.40;99.90
22771;DHT22;11552;50.786;4.332;2022-08-19T07:39:33;22.50;99.90
22771;DHT22;11552;50.786;4.332;2022-08-19T07:42:00;22.80;99.90
22771;DHT22;11552;50.786;4.332;2022-08-19T07:44:26;22.90;99.90
22771;DHT22;11552;50.786;4.332;2022-08-19T07:46:53;22.80;99.90
22771;DHT22;11552;50.786;4.332;2022-08-19T07:49:19;22.90;99.90
22771;DHT22;11552;50.786;4.332;2022-08-19T07:51:46;22.70;99.90
22771;DHT22;11552;50.786;4.332;2022-08-19T07:54:12;22.70;99.90
22771;DHT22;11552;50.786;4.332;2022-08-19T07:56:39;22.80;99.90
22771;DHT22;11552;50.786;4.332;2022-08-19T07:59:07;22.90;99.90
22771;DHT22;11552;50.786;4.332;2022-08-19T08:01:35;22.90;99.90
22771;DHT22;11552;50.786;4.332;2022-08-19T08:04:01;23.10;99.90
22771;DHT22;11552;50.786;4.332;2022-08-19T08:06:45;23.20;99.90
22771;DHT22;11552;50.786;4.332;2022-08-19T08:09:31;23.30;99.90
22771;DHT22;11552;50.786;4.332;2022-08-19T08:12:05;23.10;99.90
22771;DHT22;11552;50.786;4.332;2022-08-19T08:14:33;23.10;99.90
22771;DHT22;11552;50.786;4.332;2022-08-19T08:17:00;23.00;99.90
22771;DHT22;11552;50.786;4.332;2022-08-19T08:19:26;23.00;99.90
22771;DHT22;11552;50.786;4.332;2022-08-19T08:21:53;23.10;99.90
22771;DHT22;11552;50.786;4.332;2022-08-19T08:24:19;23.30;99.90
22771;DHT22;11552;50.786;4.332;2022-08-19T08:26:45;23.50;99.90
22771;DHT22;11552;50.786;4.332;2022-08-19T08:29:13;23.40;99.90
22771;DHT22;11552;50.786;4.332;2022-08-19T08:31:39;23.60;99.90
22771;DHT22;11552;50.786;4.332;2022-08-19T08:34:06;23.40;99.90
22771;DHT22;11552;50.786;4.332;2022-08-19T08:36:31;23.20;99.90
22771;DHT22;11552;50.786;4.332;2022-08-19T08:38:59;23.40;99.90
22771;DHT22;11552;50.786;4.332;2022-08-19T08:41:29;23.50;99.90
22771;DHT22;11552;50.786;4.332;2022-08-19T08:43:56;23.20;99.90
22771;DHT22;11552;50.786;4.332;2022-08-19T08:53:59;23.20;99.90
22771;DHT22;11552;50.786;4.332;2022-08-19T08:56:25;23.30;99.90
22771;DHT22;11552;50.786;4.332;2022-08-19T08:58:58;23.30;99.90
22771;DHT22;11552;50.786;4.332;2022-08-19T09:01:24;23.30;99.90
22771;DHT22;11552;50.786;4.332;2022-08-19T09:03:49;23.20;99.90
22771;DHT22;11552;50.786;4.332;2022-08-19T09:06:28;23.10;99.90
22771;DHT22;11552;50.786;4.332;2022-08-19T09:09:00;23.30;99.90
22771;DHT22;11552;50.786;4.332;2022-08-19T09:11:44;23.30;99.90
22771;DHT22;11552;50.786;4.332;2022-08-19T09:14:19;23.20;99.90
22771;DHT22;11552;50.786;4.332;2022-08-19T09:16:46;23.40;99.90
22771;DHT22;11552;50.786;4.332;2022-08-19T09:19:13;23.70;99.90
22771;DHT22;11552;50.786;4.332;2022-08-19T09:21:39;23.70;99.90
22771;DHT22;11552;50.786;4.332;2022-08-19T09:24:05;23.70;99.90
22771;DHT22;11552;50.786;4.332;2022-08-19T09:26:31;23.80;99.90
22771;DHT22;11552;50.786;4.332;2022-08-19T09:28:58;23.70;99.90
22771;DHT22;11552;50.786;4.332;2022-08-19T09:31:25;23.60;99.90
22771;DHT22;11552;50.786;4.332;2022-08-19T09:33:52;23.70;99.90
22771;DHT22;11552;50.786;4.332;2022-08-19T09:36:19;23.90;99.90
22771;DHT22;11552;50.786;4.332;2022-08-19T09:38:44;23.90;99.90
22771;DHT22;11552;50.786;4.332;2022-08-19T09:41:15;23.80;99.90
22771;DHT22;11552;50.786;4.332;2022-08-19T09:46:10;24.00;99.90
22771;DHT22;11552;50.786;4.332;2022-08-19T09:48:36;23.90;99.90
22771;DHT22;11552;50.786;4.332;2022-08-19T09:51:12;24.00;99.90
22771;DHT22;11552;50.786;4.332;2022-08-19T09:53:40;23.90;99.90
22771;DHT22;11552;50.786;4.332;2022-08-19T09:56:06;24.20;99.90
22771;DHT22;11552;50.786;4.332;2022-08-19T09:58:33;24.20;99.90
22771;DHT22;11552;50.786;4.332;2022-08-19T10:01:00;24.40;99.90
22771;DHT22;11552;50.786;4.332;2022-08-19T10:05:56;24.40;99.90
22771;DHT22;11552;50.786;4.332;2022-08-19T10:08:24;24.30;99.90
22771;DHT22;11552;50.786;4.332;2022-08-19T10:10:51;24.40;99.90
22771;DHT22;11552;50.786;4.332;2022-08-19T10:13:18;24.30;99.90
22771;DHT22;11552;50.786;4.332;2022-08-19T10:15:48;24.20;99.90
22771;DHT22;11552;50.786;4.332;2022-08-19T10:18:17;24.10;99.90
22771;DHT22;11552;50.786;4.332;2022-08-19T10:20:45;23.60;99.90
22771;DHT22;11552;50.786;4.332;2022-08-19T10:23:11;23.50;99.90
22771;DHT22;11552;50.786;4.332;2022-08-19T10:25:37;23.40;99.90
22771;DHT22;11552;50.786;4.332;2022-08-19T10:28:03;23.40;99.90
22771;DHT22;11552;50.786;4.332;2022-08-19T10:30:30;23.70;99.90
22771;DHT22;11552;50.786;4.332;2022-08-19T10:32:55;24.00;99.90
22771;DHT22;11552;50.786;4.332;2022-08-19T10:35:22;24.10;99.90
22771;DHT22;11552;50.786;4.332;2022-08-19T10:37:48;24.00;99.90
22771;DHT22;11552;50.786;4.332;2022-08-19T10:40:15;24.10;99.90
22771;DHT22;11552;50.786;4.332;2022-08-19T10:42:41;24.00;99.90
22771;DHT22;11552;50.786;4.332;2022-08-19T10:45:06;23.90;99.90
22771;DHT22;11552;50.786;4.332;2022-08-19T10:47:33;24.10;99.90
22771;DHT22;11552;50.786;4.332;2022-08-19T10:49:58;24.30;99.90
22771;DHT22;11552;50.786;4.332;2022-08-19T10:52:44;24.60;99.90
22771;DHT22;11552;50.786;4.332;2022-08-19T10:55:09;25.10;99.90
22771;DHT22;11552;50.786;4.332;2022-08-19T10:57:54;25.00;99.90
22771;DHT22;11552;50.786;4.332;2022-08-19T11:00:21;24.60;99.90
22771;DHT22;11552;50.786;4.332;2022-08-19T11:02:48;24.30;99.90
22771;DHT22;11552;50.786;4.332;2022-08-19T11:05:14;23.90;99.90
22771;DHT22;11552;50.786;4.332;2022-08-19T11:07:40;24.00;99.90
22771;DHT22;11552;50.786;4.332;2022-08-19T11:10:08;24.30;99.90
22771;DHT22;11552;50.786;4.332;2022-08-19T11:12:36;24.10;99.90
22771;DHT22;11552;50.786;4.332;2022-08-19T11:15:02;24.00;99.90
22771;DHT22;11552;50.786;4.332;2022-08-19T11:17:27;24.10;99.90
22771;DHT22;11552;50.786;4.332;2022-08-19T11:19:53;24.40;99.90
22771;DHT22;11552;50.786;4.332;2022-08-19T11:22:18;24.40;99.90
22771;DHT22;11552;50.786;4.332;2022-08-19T11:24:44;24.60;99.90
22771;DHT22;11552;50.786;4.332;2022-08-19T11:27:10;24.60;99.90
22771;DHT22;11552;50.786;4.332;2022-08-19T11:29:39;24.90;99.90
22771;DHT22;11552;50.786;4.332;2022-08-19T11:32:09;24.80;99.90
22771;DHT22;11552;50.786;4.332;2022-08-19T11:34:35;24.90;99.90
22771;DHT22;11552;50.786;4.332;2022-08-19T11:37:02;24.60;99.90
22771;DHT22;11552;50.786;4.332;2022-08-19T11:39:29;24.40;99.90
22771;DHT22;11552;50.786;4.332;2022-08-19T11:41:57;24.30;99.90
22771;DHT22;11552;50.786;4.332;2022-08-19T11:44:22;24.30;99.90
22771;DHT22;11552;50.786;4.332;2022-08-19T11:46:49;24.40;99.90
22771;DHT22;11552;50.786;4.332;2022-08-19T11:49:18;25.00;99.90
22771;DHT22;11552;50.786;4.332;2022-08-19T11:51:44;25.50;99.90
22771;DHT22;11552;50.786;4.332;2022-08-19T11:54:12;25.60;99.90
22771;DHT22;11552;50.786;4.332;2022-08-19T11:56:38;26.10;99.90
22771;DHT22;11552;50.786;4.332;2022-08-19T11:59:04;26.20;99.90
22771;DHT22;11552;50.786;4.332;2022-08-19T12:01:30;26.20;99.90
22771;DHT22;11552;50.786;4.332;2022-08-19T12:03:56;26.30;99.90
22771;DHT22;11552;50.786;4.332;2022-08-19T12:06:23;26.40;99.90
22771;DHT22;11552;50.786;4.332;2022-08-19T12:08:51;26.40;99.90
22771;DHT22;11552;50.786;4.332;2022-08-19T12:11:16;26.60;99.90
22771;DHT22;11552;50.786;4.332;2022-08-19T12:13:42;26.60;99.90
22771;DHT22;11552;50.786;4.332;2022-08-19T12:16:12;26.90;99.90
22771;DHT22;11552;50.786;4.332;2022-08-19T12:18:38;27.10;99.90
22771;DHT22;11552;50.786;4.332;2022-08-19T12:21:06;27.10;99.90
22771;DHT22;11552;50.786;4.332;2022-08-19T12:23:32;26.80;99.90
22771;DHT22;11552;50.786;4.332;2022-08-19T12:25:57;26.70;99.90
22771;DHT22;11552;50.786;4.332;2022-08-19T12:28:24;26.90;99.90
22771;DHT22;11552;50.786;4.332;2022-08-19T12:30:50;27.00;99.90
22771;DHT22;11552;50.786;4.332;2022-08-19T12:33:17;26.90;99.90
22771;DHT22;11552;50.786;4.332;2022-08-19T12:35:43;26.90;99.90
22771;DHT22;11552;50.786;4.332;2022-08-19T12:38:10;27.20;99.90
22771;DHT22;11552;50.786;4.332;2022-08-19T12:40:35;27.10;99.90
22771;DHT22;11552;50.786;4.332;2022-08-19T12:43:02;27.10;99.90
22771;DHT22;11552;50.786;4.332;2022-08-19T12:45:28;27.10;99.90
22771;DHT22;11552;50.786;4.332;2022-08-19T12:47:54;27.00;99.90
22771;DHT22;11552;50.786;4.332;2022-08-19T12:50:19;27.00;99.90
22771;DHT22;11552;50.786;4.332;2022-08-19T12:52:46;26.90;99.90
22771;DHT22;11552;50.786;4.332;2022-08-19T12:55:12;26.70;99.90
22771;DHT22;11552;50.786;4.332;2022-08-19T12:57:37;26.50;99.90
22771;DHT22;11552;50.786;4.332;2022-08-19T13:00:08;26.40;99.90
22771;DHT22;11552;50.786;4.332;2022-08-19T13:02:41;26.60;99.90
22771;DHT22;11552;50.786;4.332;2022-08-19T13:05:08;27.10;99.90
22771;DHT22;11552;50.786;4.332;2022-08-19T13:07:33;27.40;99.90
22771;DHT22;11552;50.786;4.332;2022-08-19T13:10:00;27.30;99.90
22771;DHT22;11552;50.786;4.332;2022-08-19T13:12:25;27.30;99.90
22771;DHT22;11552;50.786;4.332;2022-08-19T13:14:52;26.90;99.90
22771;DHT22;11552;50.786;4.332;2022-08-19T13:17:18;26.90;99.90
22771;DHT22;11552;50.786;4.332;2022-08-19T13:19:44;26.90;99.90
22771;DHT22;11552;50.786;4.332;2022-08-19T13:22:09;27.10;99.90
22771;DHT22;11552;50.786;4.332;2022-08-19T13:24:35;27.20;99.90
22771;DHT22;11552;50.786;4.332;2022-08-19T13:27:02;27.30;99.90
22771;DHT22;11552;50.786;4.332;2022-08-19T13:29:28;27.50;99.90
22771;DHT22;11552;50.786;4.332;2022-08-19T13:32:13;27.60;99.90
22771;DHT22;11552;50.786;4.332;2022-08-19T13:34:57;27.70;99.90
22771;DHT22;11552;50.786;4.332;2022-08-19T13:37:22;27.70;99.90
22771;DHT22;11552;50.786;4.332;2022-08-19T13:40:16;27.80;99.90
22771;DHT22;11552;50.786;4.332;2022-08-19T13:42:44;28.00;99.90
22771;DHT22;11552;50.786;4.332;2022-08-19T13:45:11;28.10;99.90
22771;DHT22;11552;50.786;4.332;2022-08-19T13:47:38;27.80;99.90
22771;DHT22;11552;50.786;4.332;2022-08-19T13:50:09;27.50;99.90
22771;DHT22;11552;50.786;4.332;2022-08-19T13:52:36;27.30;99.90
22771;DHT22;11552;50.786;4.332;2022-08-19T13:55:01;27.30;99.90
22771;DHT22;11552;50.786;4.332;2022-08-19T13:57:27;27.20;99.90
22771;DHT22;11552;50.786;4.332;2022-08-19T13:59:53;27.10;99.90
22771;DHT22;11552;50.786;4.332;2022-08-19T14:02:19;26.80;99.90
22771;DHT22;11552;50.786;4.332;2022-08-19T14:04:45;26.60;99.90
22771;DHT22;11552;50.786;4.332;2022-08-19T14:07:11;26.40;99.90
22771;DHT22;11552;50.786;4.332;2022-08-19T14:09:36;26.20;99.90
22771;DHT22;11552;50.786;4.332;2022-08-19T14:12:02;25.90;99.90
22771;DHT22;11552;50.786;4.332;2022-08-19T14:14:27;26.00;99.90
22771;DHT22;11552;50.786;4.332;2022-08-19T14:16:54;26.00;99.90
22771;DHT22;11552;50.786;4.332;2022-08-19T14:19:19;26.00;99.90
22771;DHT22;11552;50.786;4.332;2022-08-19T14:21:45;26.00;99.90
22771;DHT22;11552;50.786;4.332;2022-08-19T14:24:10;25.60;99.90
22771;DHT22;11552;50.786;4.332;2022-08-19T14:26:36;25.40;99.90
22771;DHT22;11552;50.786;4.332;2022-08-19T14:29:02;25.00;99.90
22771;DHT22;11552;50.786;4.332;2022-08-19T14:31:28;24.70;99.90
22771;DHT22;11552;50.786;4.332;2022-08-19T14:33:53;24.40;99.90
22771;DHT22;11552;50.786;4.332;2022-08-19T14:36:19;24.40;99.90
22771;DHT22;11552;50.786;4.332;2022-08-19T14:38:46;24.50;99.90
22771;DHT22;11552;50.786;4.332;2022-08-19T14:41:13;24.70;99.90
22771;DHT22;11552;50.786;4.332;2022-08-19T14:43:42;24.90;99.90
22771;DHT22;11552;50.786;4.332;2022-08-19T14:46:11;25.00;99.90
22771;DHT22;11552;50.786;4.332;2022-08-19T14:48:37;25.30;99.90
22771;DHT22;11552;50.786;4.332;2022-08-19T14:51:05;25.60;99.90
22771;DHT22;11552;50.786;4.332;2022-08-19T14:53:31;26.20;99.90
22771;DHT22;11552;50.786;4.332;2022-08-19T14:55:58;26.70;99.90
22771;DHT22;11552;50.786;4.332;2022-08-19T14:58:24;26.80;99.90
22771;DHT22;11552;50.786;4.332;2022-08-19T15:00:50;26.60;99.90
22771;DHT22;11552;50.786;4.332;2022-08-19T15:03:17;26.40;99.90
22771;DHT22;11552;50.786;4.332;2022-08-19T15:05:42;26.10;99.90
22771;DHT22;11552;50.786;4.332;2022-08-19T15:08:09;26.00;99.90
22771;DHT22;11552;50.786;4.332;2022-08-19T15:10:35;25.80;99.90
22771;DHT22;11552;50.786;4.332;2022-08-19T15:13:03;25.80;99.90
22771;DHT22;11552;50.786;4.332;2022-08-19T15:15:29;25.50;99.90
22771;DHT22;11552;50.786;4.332;2022-08-19T15:17:57;25.40;99.90
22771;DHT22;11552;50.786;4.332;2022-08-19T15:20:28;25.40;99.90
22771;DHT22;11552;50.786;4.332;2022-08-19T15:22:53;25.30;99.90
22771;DHT22;11552;50.786;4.332;2022-08-19T15:25:19;25.20;99.90
22771;DHT22;11552;50.786;4.332;2022-08-19T15:27:45;25.20;99.90
22771;DHT22;11552;50.786;4.332;2022-08-19T15:30:11;25.20;99.90
22771;DHT22;11552;50.786;4.332;2022-08-19T15:32:37;25.30;99.90
22771;DHT22;11552;50.786;4.332;2022-08-19T15:35:04;25.80;99.90
22771;DHT22;11552;50.786;4.332;2022-08-19T15:37:30;26.20;99.90
22771;DHT22;11552;50.786;4.332;2022-08-19T15:39:55;26.40;99.90
22771;DHT22;11552;50.786;4.332;2022-08-19T15:42:21;26.70;99.90
22771;DHT22;11552;50.786;4.332;2022-08-19T15:44:47;26.60;99.90
22771;DHT22;11552;50.786;4.332;2022-08-19T15:47:12;26.50;99.90